sensor_id;sensor_type;location;lat;lon;timestamp;pressure;altitude;pressure_sealevel;temperature
9985;BMP180;16737;50.932;6.780;2022-07-30T00:00:38;100440.00;;;24.40
9985;BMP180;16737;50.932;6.780;2022-07-30T00:03:05;100427.00;;;24.30
9985;BMP180;16737;50.932;6.780;2022-07-30T00:05:33;100435.00;;;24.30
9985;BMP180;16737;50.932;6.780;2022-07-30T00:08:00;100434.00;;;24.30
9985;BMP180;16737;50.932;6.780;2022-07-30T00:10:27;100425.00;;;24.20
9985;BMP180;16737;50.932;6.780;2022-07-30T00:12:55;100430.00;;;24.20
9985;BMP180;16737;50.932;6.780;2022-07-30T00:15:23;100440.00;;;24.20
9985;BMP180;16737;50.932;6.780;2022-07-30T00:17:51;100439.00;;;24.10
9985;BMP180;16737;50.932;6.780;2022-07-30T00:20:18;100431.00;;;24.10
9985;BMP180;16737;50.932;6.780;2022-07-30T00:22:45;100436.00;;;24.00
9985;BMP180;16737;50.932;6.780;2022-07-30T00:25:12;100435.00;;;24.00
9985;BMP180;16737;50.932;6.780;2022-07-30T00:27:39;100430.00;;;23.90
9985;BMP180;16737;50.932;6.780;2022-07-30T00:30:09;100434.00;;;23.90
9985;BMP180;16737;50.932;6.780;2022-07-30T00:32:36;100430.00;;;23.80
9985;BMP180;16737;50.932;6.780;2022-07-30T00:35:05;100431.00;;;23.80
9985;BMP180;16737;50.932;6.780;2022-07-30T00:37:32;100425.00;;;23.70
9985;BMP180;16737;50.932;6.780;2022-07-30T00:39:59;100431.00;;;23.70
9985;BMP180;16737;50.932;6.780;2022-07-30T00:42:37;100429.00;;;23.60
9985;BMP180;16737;50.932;6.780;2022-07-30T00:45:08;100426.00;;;23.60
9985;BMP180;16737;50.932;6.780;2022-07-30T00:47:36;100409.00;;;23.60
9985;BMP180;16737;50.932;6.780;2022-07-30T00:50:04;100422.00;;;23.50
9985;BMP180;16737;50.932;6.780;2022-07-30T00:52:33;100420.00;;;23.40
9985;BMP180;16737;50.932;6.780;2022-07-30T00:55:00;100428.00;;;23.40
9985;BMP180;16737;50.932;6.780;2022-07-30T00:57:27;100431.00;;;23.30
9985;BMP180;16737;50.932;6.780;2022-07-30T00:59:55;100430.00;;;23.30
9985;BMP180;16737;50.932;6.780;2022-07-30T01:02:24;100423.00;;;23.30
9985;BMP180;16737;50.932;6.780;2022-07-30T01:04:51;100428.00;;;23.20
9985;BMP180;16737;50.932;6.780;2022-07-30T01:07:18;100427.00;;;23.20
9985;BMP180;16737;50.932;6.780;2022-07-30T01:09:51;100435.00;;;23.20
9985;BMP180;16737;50.932;6.780;2022-07-30T01:12:22;100431.00;;;23.10
9985;BMP180;16737;50.932;6.780;2022-07-30T01:14:53;100431.00;;;23.10
9985;BMP180;16737;50.932;6.780;2022-07-30T01:17:21;100431.00;;;23.00
9985;BMP180;16737;50.932;6.780;2022-07-30T01:19:53;100426.00;;;23.00
9985;BMP180;16737;50.932;6.780;2022-07-30T01:22:42;100403.00;;;22.90
9985;BMP180;16737;50.932;6.780;2022-07-30T01:25:16;100427.00;;;22.90
9985;BMP180;16737;50.932;6.780;2022-07-30T01:27:51;100429.00;;;22.90
9985;BMP180;16737;50.932;6.780;2022-07-30T01:30:22;100428.00;;;22.80
9985;BMP180;16737;50.932;6.780;2022-07-30T01:32:54;100429.00;;;22.70
9985;BMP180;16737;50.932;6.780;2022-07-30T01:35:24;100423.00;;;22.70
9985;BMP180;16737;50.932;6.780;2022-07-30T01:37:53;100402.00;;;22.70
9985;BMP180;16737;50.932;6.780;2022-07-30T01:40:23;100423.00;;;22.60
9985;BMP180;16737;50.932;6.780;2022-07-30T01:42:54;100425.00;;;22.50
9985;BMP180;16737;50.932;6.780;2022-07-30T01:45:25;100425.00;;;22.50
9985;BMP180;16737;50.932;6.780;2022-07-30T01:47:57;100430.00;;;22.40
9985;BMP180;16737;50.932;6.780;2022-07-30T01:50:27;100427.00;;;22.40
9985;BMP180;16737;50.932;6.780;2022-07-30T01:53:02;100432.00;;;22.40
9985;BMP180;16737;50.932;6.780;2022-07-30T01:55:34;100420.00;;;22.30
9985;BMP180;16737;50.932;6.780;2022-07-30T01:58:06;100425.00;;;22.30
9985;BMP180;16737;50.932;6.780;2022-07-30T02:00:38;100430.00;;;22.30
9985;BMP180;16737;50.932;6.780;2022-07-30T02:03:06;100432.00;;;22.20
9985;BMP180;16737;50.932;6.780;2022-07-30T02:05:36;100413.00;;;22.20
9985;BMP180;16737;50.932;6.780;2022-07-30T02:08:11;100430.00;;;22.10
9985;BMP180;16737;50.932;6.780;2022-07-30T02:10:44;100440.00;;;22.10
9985;BMP180;16737;50.932;6.780;2022-07-30T02:13:22;100429.00;;;22.00
9985;BMP180;16737;50.932;6.780;2022-07-30T02:16:05;100426.00;;;22.00
9985;BMP180;16737;50.932;6.780;2022-07-30T02:18:45;100427.00;;;22.00
9985;BMP180;16737;50.932;6.780;2022-07-30T02:21:18;100431.00;;;21.90
9985;BMP180;16737;50.932;6.780;2022-07-30T02:23:48;100442.00;;;21.90
9985;BMP180;16737;50.932;6.780;2022-07-30T02:26:20;100429.00;;;21.90
9985;BMP180;16737;50.932;6.780;2022-07-30T02:28:55;100432.00;;;21.80
9985;BMP180;16737;50.932;6.780;2022-07-30T02:31:26;100432.00;;;21.80
9985;BMP180;16737;50.932;6.780;2022-07-30T02:33:58;100438.00;;;21.80
9985;BMP180;16737;50.932;6.780;2022-07-30T02:36:27;100433.00;;;21.80
9985;BMP180;16737;50.932;6.780;2022-07-30T02:38:57;100429.00;;;21.80
9985;BMP180;16737;50.932;6.780;2022-07-30T02:41:27;100431.00;;;21.70
9985;BMP180;16737;50.932;6.780;2022-07-30T02:43:58;100436.00;;;21.70
9985;BMP180;16737;50.932;6.780;2022-07-30T02:46:30;100439.00;;;21.70
9985;BMP180;16737;50.932;6.780;2022-07-30T02:48:58;100428.00;;;21.70
9985;BMP180;16737;50.932;6.780;2022-07-30T02:51:28;100433.00;;;21.70
9985;BMP180;16737;50.932;6.780;2022-07-30T02:53:57;100436.00;;;21.60
9985;BMP180;16737;50.932;6.780;2022-07-30T02:56:27;100436.00;;;21.60
9985;BMP180;16737;50.932;6.780;2022-07-30T02:58:58;100433.00;;;21.60
9985;BMP180;16737;50.932;6.780;2022-07-30T03:01:29;100434.00;;;21.60
9985;BMP180;16737;50.932;6.780;2022-07-30T03:03:58;100436.00;;;21.50
9985;BMP180;16737;50.932;6.780;2022-07-30T03:06:26;100443.00;;;21.50
9985;BMP180;16737;50.932;6.780;2022-07-30T03:08:55;100439.00;;;21.50
9985;BMP180;16737;50.932;6.780;2022-07-30T03:11:25;100452.00;;;21.50
9985;BMP180;16737;50.932;6.780;2022-07-30T03:13:53;100453.00;;;21.50
9985;BMP180;16737;50.932;6.780;2022-07-30T03:16:25;100451.00;;;21.60
9985;BMP180;16737;50.932;6.780;2022-07-30T03:18:54;100457.00;;;21.60
9985;BMP180;16737;50.932;6.780;2022-07-30T03:21:25;100456.00;;;21.60
9985;BMP180;16737;50.932;6.780;2022-07-30T03:23:55;100459.00;;;21.60
9985;BMP180;16737;50.932;6.780;2022-07-30T03:26:24;100452.00;;;21.60
9985;BMP180;16737;50.932;6.780;2022-07-30T03:28:52;100460.00;;;21.60
9985;BMP180;16737;50.932;6.780;2022-07-30T03:31:19;100457.00;;;21.50
9985;BMP180;16737;50.932;6.780;2022-07-30T03:33:49;100454.00;;;21.50
9985;BMP180;16737;50.932;6.780;2022-07-30T03:36:17;100454.00;;;21.50
9985;BMP180;16737;50.932;6.780;2022-07-30T03:38:47;100452.00;;;21.40
9985;BMP180;16737;50.932;6.780;2022-07-30T03:41:15;100458.00;;;21.40
9985;BMP180;16737;50.932;6.780;2022-07-30T03:43:43;100460.00;;;21.40
9985;BMP180;16737;50.932;6.780;2022-07-30T03:46:13;100463.00;;;21.40
9985;BMP180;16737;50.932;6.780;2022-07-30T03:48:43;100463.00;;;21.40
9985;BMP180;16737;50.932;6.780;2022-07-30T03:51:13;100464.00;;;21.40
9985;BMP180;16737;50.932;6.780;2022-07-30T03:53:44;100469.00;;;21.40
9985;BMP180;16737;50.932;6.780;2022-07-30T03:56:14;100464.00;;;21.40
9985;BMP180;16737;50.932;6.780;2022-07-30T03:58:42;100472.00;;;21.40
9985;BMP180;16737;50.932;6.780;2022-07-30T04:01:09;100476.00;;;21.40
9985;BMP180;16737;50.932;6.780;2022-07-30T04:03:37;100482.00;;;21.30
9985;BMP180;16737;50.932;6.780;2022-07-30T04:06:04;100482.00;;;21.30
9985;BMP180;16737;50.932;6.780;2022-07-30T04:08:54;100486.00;;;21.30
9985;BMP180;16737;50.932;6.780;2022-07-30T04:11:23;100492.00;;;21.30
9985;BMP180;16737;50.932;6.780;2022-07-30T04:13:50;100496.00;;;21.30
9985;BMP180;16737;50.932;6.780;2022-07-30T04:16:24;100490.00;;;21.20
9985;BMP180;16737;50.932;6.780;2022-07-30T04:18:58;100501.00;;;21.20
9985;BMP180;16737;50.932;6.780;2022-07-30T04:21:27;100500.00;;;21.20
9985;BMP180;16737;50.932;6.780;2022-07-30T04:23:58;100497.00;;;21.20
9985;BMP180;16737;50.932;6.780;2022-07-30T04:26:28;100501.00;;;21.10
9985;BMP180;16737;50.932;6.780;2022-07-30T04:28:56;100495.00;;;21.10
9985;BMP180;16737;50.932;6.780;2022-07-30T04:31:28;100502.00;;;21.10
9985;BMP180;16737;50.932;6.780;2022-07-30T04:34:00;100505.00;;;21.10
9985;BMP180;16737;50.932;6.780;2022-07-30T04:36:37;100503.00;;;21.10
9985;BMP180;16737;50.932;6.780;2022-07-30T04:39:06;100510.00;;;21.10
9985;BMP180;16737;50.932;6.780;2022-07-30T04:41:34;100507.00;;;21.00
9985;BMP180;16737;50.932;6.780;2022-07-30T04:44:02;100519.00;;;21.00
9985;BMP180;16737;50.932;6.780;2022-07-30T04:46:30;100512.00;;;21.00
9985;BMP180;16737;50.932;6.780;2022-07-30T04:48:57;100507.00;;;21.00
9985;BMP180;16737;50.932;6.780;2022-07-30T04:51:41;100515.00;;;21.00
9985;BMP180;16737;50.932;6.780;2022-07-30T04:54:13;100510.00;;;21.00
9985;BMP180;16737;50.932;6.780;2022-07-30T04:56:48;100525.00;;;21.00
9985;BMP180;16737;50.932;6.780;2022-07-30T04:59:17;100529.00;;;21.00
9985;BMP180;16737;50.932;6.780;2022-07-30T05:01:49;100533.00;;;21.00
9985;BMP180;16737;50.932;6.780;2022-07-30T05:04:18;100530.00;;;21.00
9985;BMP180;16737;50.932;6.780;2022-07-30T05:06:47;100525.00;;;21.00
9985;BMP180;16737;50.932;6.780;2022-07-30T05:09:16;100548.00;;;21.10
9985;BMP180;16737;50.932;6.780;2022-07-30T05:11:49;100543.00;;;21.10
9985;BMP180;16737;50.932;6.780;2022-07-30T05:14:17;100548.00;;;21.10
9985;BMP180;16737;50.932;6.780;2022-07-30T05:16:44;100551.00;;;21.20
9985;BMP180;16737;50.932;6.780;2022-07-30T05:19:11;100552.00;;;21.20
9985;BMP180;16737;50.932;6.780;2022-07-30T05:21:39;100547.00;;;21.20
9985;BMP180;16737;50.932;6.780;2022-07-30T05:24:06;100549.00;;;21.20
9985;BMP180;16737;50.932;6.780;2022-07-30T05:26:35;100554.00;;;21.10
9985;BMP180;16737;50.932;6.780;2022-07-30T05:29:03;100548.00;;;21.10
9985;BMP180;16737;50.932;6.780;2022-07-30T05:31:30;100555.00;;;21.10
9985;BMP180;16737;50.932;6.780;2022-07-30T05:33:58;100545.00;;;21.00
9985;BMP180;16737;50.932;6.780;2022-07-30T05:36:25;100539.00;;;21.00
9985;BMP180;16737;50.932;6.780;2022-07-30T05:38:53;100545.00;;;21.00
9985;BMP180;16737;50.932;6.780;2022-07-30T05:41:20;100553.00;;;21.10
9985;BMP180;16737;50.932;6.780;2022-07-30T05:43:48;100550.00;;;21.10
9985;BMP180;16737;50.932;6.780;2022-07-30T05:46:16;100555.00;;;21.20
9985;BMP180;16737;50.932;6.780;2022-07-30T05:48:43;100559.00;;;21.20
9985;BMP180;16737;50.932;6.780;2022-07-30T05:51:25;100560.00;;;21.10
9985;BMP180;16737;50.932;6.780;2022-07-30T05:53:52;100562.00;;;21.20
9985;BMP180;16737;50.932;6.780;2022-07-30T05:56:28;100564.00;;;21.10
9985;BMP180;16737;50.932;6.780;2022-07-30T05:58:56;100558.00;;;21.10
9985;BMP180;16737;50.932;6.780;2022-07-30T06:01:24;100562.00;;;21.20
9985;BMP180;16737;50.932;6.780;2022-07-30T06:03:51;100562.00;;;21.10
9985;BMP180;16737;50.932;6.780;2022-07-30T06:06:20;100566.00;;;21.10
9985;BMP180;16737;50.932;6.780;2022-07-30T06:08:47;100570.00;;;21.10
9985;BMP180;16737;50.932;6.780;2022-07-30T06:11:15;100564.00;;;21.10
9985;BMP180;16737;50.932;6.780;2022-07-30T06:13:42;100570.00;;;21.10
9985;BMP180;16737;50.932;6.780;2022-07-30T06:16:12;100581.00;;;21.10
9985;BMP180;16737;50.932;6.780;2022-07-30T06:18:39;100576.00;;;21.10
9985;BMP180;16737;50.932;6.780;2022-07-30T06:21:07;100575.00;;;21.10
9985;BMP180;16737;50.932;6.780;2022-07-30T06:23:37;100571.00;;;21.10
9985;BMP180;16737;50.932;6.780;2022-07-30T06:26:04;100589.00;;;21.20
9985;BMP180;16737;50.932;6.780;2022-07-30T06:28:31;100587.00;;;21.20
9985;BMP180;16737;50.932;6.780;2022-07-30T06:30:59;100594.00;;;21.20
9985;BMP180;16737;50.932;6.780;2022-07-30T06:33:28;100600.00;;;21.20
9985;BMP180;16737;50.932;6.780;2022-07-30T06:35:56;100594.00;;;21.20
9985;BMP180;16737;50.932;6.780;2022-07-30T06:38:23;100587.00;;;21.20
9985;BMP180;16737;50.932;6.780;2022-07-30T06:40:50;100588.00;;;21.20
9985;BMP180;16737;50.932;6.780;2022-07-30T06:43:18;100589.00;;;21.20
9985;BMP180;16737;50.932;6.780;2022-07-30T06:45:46;100599.00;;;21.20
9985;BMP180;16737;50.932;6.780;2022-07-30T06:48:13;100597.00;;;21.30
9985;BMP180;16737;50.932;6.780;2022-07-30T06:50:41;100599.00;;;21.30
9985;BMP180;16737;50.932;6.780;2022-07-30T06:53:10;100602.00;;;21.40
9985;BMP180;16737;50.932;6.780;2022-07-30T06:55:37;100597.00;;;21.40
9985;BMP180;16737;50.932;6.780;2022-07-30T06:58:04;100602.00;;;21.50
9985;BMP180;16737;50.932;6.780;2022-07-30T07:00:32;100602.00;;;21.50
9985;BMP180;16737;50.932;6.780;2022-07-30T07:02:59;100609.00;;;21.60
9985;BMP180;16737;50.932;6.780;2022-07-30T07:05:27;100605.00;;;21.60
9985;BMP180;16737;50.932;6.780;2022-07-30T07:07:57;100613.00;;;21.70
9985;BMP180;16737;50.932;6.780;2022-07-30T07:10:24;100625.00;;;21.70
9985;BMP180;16737;50.932;6.780;2022-07-30T07:13:01;100619.00;;;21.80
9985;BMP180;16737;50.932;6.780;2022-07-30T07:15:28;100619.00;;;21.90
9985;BMP180;16737;50.932;6.780;2022-07-30T07:18:04;100615.00;;;21.90
9985;BMP180;16737;50.932;6.780;2022-07-30T07:20:32;100620.00;;;22.00
9985;BMP180;16737;50.932;6.780;2022-07-30T07:23:16;100626.00;;;22.10
9985;BMP180;16737;50.932;6.780;2022-07-30T07:25:43;100623.00;;;22.10
9985;BMP180;16737;50.932;6.780;2022-07-30T07:28:10;100618.00;;;22.10
9985;BMP180;16737;50.932;6.780;2022-07-30T07:30:38;100624.00;;;22.20
9985;BMP180;16737;50.932;6.780;2022-07-30T07:33:08;100629.00;;;22.20
9985;BMP180;16737;50.932;6.780;2022-07-30T07:35:36;100622.00;;;22.20
9985;BMP180;16737;50.932;6.780;2022-07-30T07:38:05;100622.00;;;22.30
9985;BMP180;16737;50.932;6.780;2022-07-30T07:40:32;100623.00;;;22.40
9985;BMP180;16737;50.932;6.780;2022-07-30T07:43:00;100627.00;;;22.40
9985;BMP180;16737;50.932;6.780;2022-07-30T07:45:27;100635.00;;;22.50
9985;BMP180;16737;50.932;6.780;2022-07-30T07:47:55;100631.00;;;22.50
9985;BMP180;16737;50.932;6.780;2022-07-30T07:50:25;100632.00;;;22.60
9985;BMP180;16737;50.932;6.780;2022-07-30T07:52:52;100625.00;;;22.70
9985;BMP180;16737;50.932;6.780;2022-07-30T07:55:21;100632.00;;;22.80
9985;BMP180;16737;50.932;6.780;2022-07-30T07:57:49;100633.00;;;22.80
9985;BMP180;16737;50.932;6.780;2022-07-30T08:00:17;100638.00;;;22.90
9985;BMP180;16737;50.932;6.780;2022-07-30T08:02:45;100635.00;;;23.00
9985;BMP180;16737;50.932;6.780;2022-07-30T08:05:12;100633.00;;;23.10
9985;BMP180;16737;50.932;6.780;2022-07-30T08:07:43;100628.00;;;23.10
9985;BMP180;16737;50.932;6.780;2022-07-30T08:10:11;100624.00;;;23.20
9985;BMP180;16737;50.932;6.780;2022-07-30T08:12:42;100634.00;;;23.30
9985;BMP180;16737;50.932;6.780;2022-07-30T08:15:10;100633.00;;;23.40
9985;BMP180;16737;50.932;6.780;2022-07-30T08:17:40;100625.00;;;23.50
9985;BMP180;16737;50.932;6.780;2022-07-30T08:20:09;100629.00;;;23.60
9985;BMP180;16737;50.932;6.780;2022-07-30T08:22:37;100632.00;;;23.70
9985;BMP180;16737;50.932;6.780;2022-07-30T08:25:05;100634.00;;;23.80
9985;BMP180;16737;50.932;6.780;2022-07-30T08:27:49;100629.00;;;23.80
9985;BMP180;16737;50.932;6.780;2022-07-30T08:30:19;100632.00;;;24.00
9985;BMP180;16737;50.932;6.780;2022-07-30T08:32:54;100617.00;;;24.00
9985;BMP180;16737;50.932;6.780;2022-07-30T08:35:23;100633.00;;;24.10
9985;BMP180;16737;50.932;6.780;2022-07-30T08:37:50;100631.00;;;24.20
9985;BMP180;16737;50.932;6.780;2022-07-30T08:40:18;100646.00;;;24.20
9985;BMP180;16737;50.932;6.780;2022-07-30T08:42:54;100636.00;;;24.20
9985;BMP180;16737;50.932;6.780;2022-07-30T08:45:22;100641.00;;;24.30
9985;BMP180;16737;50.932;6.780;2022-07-30T08:47:52;100648.00;;;24.30
9985;BMP180;16737;50.932;6.780;2022-07-30T08:50:21;100649.00;;;24.40
9985;BMP180;16737;50.932;6.780;2022-07-30T08:52:49;100643.00;;;24.40
9985;BMP180;16737;50.932;6.780;2022-07-30T08:55:21;100640.00;;;24.50
9985;BMP180;16737;50.932;6.780;2022-07-30T08:57:49;100645.00;;;24.50
9985;BMP180;16737;50.932;6.780;2022-07-30T09:00:32;100654.00;;;24.60
9985;BMP180;16737;50.932;6.780;2022-07-30T09:03:03;100653.00;;;24.60
9985;BMP180;16737;50.932;6.780;2022-07-30T09:05:37;100652.00;;;24.70
9985;BMP180;16737;50.932;6.780;2022-07-30T09:08:05;100665.00;;;24.70
9985;BMP180;16737;50.932;6.780;2022-07-30T09:10:32;100655.00;;;24.80
9985;BMP180;16737;50.932;6.780;2022-07-30T09:12:59;100652.00;;;24.90
9985;BMP180;16737;50.932;6.780;2022-07-30T09:15:28;100655.00;;;24.90
9985;BMP180;16737;50.932;6.780;2022-07-30T09:18:02;100645.00;;;25.00
9985;BMP180;16737;50.932;6.780;2022-07-30T09:20:33;100656.00;;;25.10
9985;BMP180;16737;50.932;6.780;2022-07-30T09:23:04;100660.00;;;25.20
9985;BMP180;16737;50.932;6.780;2022-07-30T09:25:39;100662.00;;;25.20
9985;BMP180;16737;50.932;6.780;2022-07-30T09:28:08;100664.00;;;25.30
9985;BMP180;16737;50.932;6.780;2022-07-30T09:30:46;100664.00;;;25.40
9985;BMP180;16737;50.932;6.780;2022-07-30T09:33:34;100660.00;;;25.50
9985;BMP180;16737;50.932;6.780;2022-07-30T09:36:04;100655.00;;;25.60
9985;BMP180;16737;50.932;6.780;2022-07-30T09:38:44;100660.00;;;25.70
9985;BMP180;16737;50.932;6.780;2022-07-30T09:41:14;100660.00;;;25.80
9985;BMP180;16737;50.932;6.780;2022-07-30T09:43:44;100654.00;;;25.80
9985;BMP180;16737;50.932;6.780;2022-07-30T09:46:12;100639.00;;;25.90
9985;BMP180;16737;50.932;6.780;2022-07-30T09:48:42;100656.00;;;26.00
9985;BMP180;16737;50.932;6.780;2022-07-30T09:51:09;100657.00;;;26.10
9985;BMP180;16737;50.932;6.780;2022-07-30T09:53:52;100659.00;;;26.20
9985;BMP180;16737;50.932;6.780;2022-07-30T09:56:25;100659.00;;;26.30
9985;BMP180;16737;50.932;6.780;2022-07-30T09:58:52;100656.00;;;26.40
9985;BMP180;16737;50.932;6.780;2022-07-30T10:01:19;100662.00;;;26.50
9985;BMP180;16737;50.932;6.780;2022-07-30T10:03:48;100663.00;;;26.60
9985;BMP180;16737;50.932;6.780;2022-07-30T10:06:15;100655.00;;;26.70
9985;BMP180;16737;50.932;6.780;2022-07-30T10:08:45;100655.00;;;26.80
9985;BMP180;16737;50.932;6.780;2022-07-30T10:11:15;100654.00;;;26.90
9985;BMP180;16737;50.932;6.780;2022-07-30T10:13:43;100653.00;;;27.00
9985;BMP180;16737;50.932;6.780;2022-07-30T10:16:10;100652.00;;;27.00
9985;BMP180;16737;50.932;6.780;2022-07-30T10:18:41;100649.00;;;27.10
9985;BMP180;16737;50.932;6.780;2022-07-30T10:21:10;100648.00;;;27.20
9985;BMP180;16737;50.932;6.780;2022-07-30T10:23:37;100649.00;;;27.20
9985;BMP180;16737;50.932;6.780;2022-07-30T10:26:07;100646.00;;;27.30
9985;BMP180;16737;50.932;6.780;2022-07-30T10:28:35;100658.00;;;27.40
9985;BMP180;16737;50.932;6.780;2022-07-30T10:31:03;100648.00;;;27.50
9985;BMP180;16737;50.932;6.780;2022-07-30T10:33:30;100642.00;;;27.50
9985;BMP180;16737;50.932;6.780;2022-07-30T10:35:57;100651.00;;;27.60
9985;BMP180;16737;50.932;6.780;2022-07-30T10:38:31;100647.00;;;27.70
9985;BMP180;16737;50.932;6.780;2022-07-30T10:41:07;100649.00;;;27.80
9985;BMP180;16737;50.932;6.780;2022-07-30T10:44:11;100652.00;;;27.90
9985;BMP180;16737;50.932;6.780;2022-07-30T10:46:59;100651.00;;;28.00
9985;BMP180;16737;50.932;6.780;2022-07-30T10:49:28;100652.00;;;28.10
9985;BMP180;16737;50.932;6.780;2022-07-30T10:51:55;100655.00;;;28.20
9985;BMP180;16737;50.932;6.780;2022-07-30T10:54:39;100648.00;;;28.20
9985;BMP180;16737;50.932;6.780;2022-07-30T10:57:11;100641.00;;;28.30
9985;BMP180;16737;50.932;6.780;2022-07-30T11:00:17;100649.00;;;28.30
9985;BMP180;16737;50.932;6.780;2022-07-30T11:03:16;100647.00;;;28.40
9985;BMP180;16737;50.932;6.780;2022-07-30T11:05:45;100646.00;;;28.40
9985;BMP180;16737;50.932;6.780;2022-07-30T11:08:32;100643.00;;;28.50
9985;BMP180;16737;50.932;6.780;2022-07-30T11:11:02;100644.00;;;28.60
9985;BMP180;16737;50.932;6.780;2022-07-30T11:13:50;100641.00;;;28.50
9985;BMP180;16737;50.932;6.780;2022-07-30T11:16:19;100640.00;;;28.70
9985;BMP180;16737;50.932;6.780;2022-07-30T11:19:08;100647.00;;;28.80
9985;BMP180;16737;50.932;6.780;2022-07-30T11:21:38;100643.00;;;28.90
9985;BMP180;16737;50.932;6.780;2022-07-30T11:24:05;100640.00;;;29.00
9985;BMP180;16737;50.932;6.780;2022-07-30T11:26:50;100640.00;;;29.00
9985;BMP180;16737;50.932;6.780;2022-07-30T11:29:39;100644.00;;;29.00
9985;BMP180;16737;50.932;6.780;2022-07-30T11:32:26;100639.00;;;29.10
9985;BMP180;16737;50.932;6.780;2022-07-30T11:35:13;100628.00;;;29.10
9985;BMP180;16737;50.932;6.780;2022-07-30T11:38:03;100647.00;;;29.20
9985;BMP180;16737;50.932;6.780;2022-07-30T11:40:33;100647.00;;;29.30
9985;BMP180;16737;50.932;6.780;2022-07-30T11:43:22;100635.00;;;29.30
9985;BMP180;16737;50.932;6.780;2022-07-30T11:45:52;100646.00;;;29.40
9985;BMP180;16737;50.932;6.780;2022-07-30T11:48:31;100643.00;;;29.50
9985;BMP180;16737;50.932;6.780;2022-07-30T11:50:58;100641.00;;;29.60
9985;BMP180;16737;50.932;6.780;2022-07-30T11:53:25;100619.00;;;29.70
9985;BMP180;16737;50.932;6.780;2022-07-30T11:55:55;100643.00;;;29.80
9985;BMP180;16737;50.932;6.780;2022-07-30T12:02:04;100651.00;;;29.90
9985;BMP180;16737;50.932;6.780;2022-07-30T12:04:31;100640.00;;;30.00
9985;BMP180;16737;50.932;6.780;2022-07-30T12:06:58;100645.00;;;30.10
9985;BMP180;16737;50.932;6.780;2022-07-30T12:09:26;100643.00;;;30.10
9985;BMP180;16737;50.932;6.780;2022-07-30T12:11:54;100638.00;;;30.20
9985;BMP180;16737;50.932;6.780;2022-07-30T12:14:21;100640.00;;;30.20
9985;BMP180;16737;50.932;6.780;2022-07-30T12:16:49;100642.00;;;30.30
9985;BMP180;16737;50.932;6.780;2022-07-30T12:19:18;100640.00;;;30.40
9985;BMP180;16737;50.932;6.780;2022-07-30T12:21:46;100639.00;;;30.50
9985;BMP180;16737;50.932;6.780;2022-07-30T12:24:14;100638.00;;;30.60
9985;BMP180;16737;50.932;6.780;2022-07-30T12:26:42;100641.00;;;30.70
9985;BMP180;16737;50.932;6.780;2022-07-30T12:29:10;100643.00;;;30.70
9985;BMP180;16737;50.932;6.780;2022-07-30T12:31:39;100643.00;;;30.80
9985;BMP180;16737;50.932;6.780;2022-07-30T12:34:20;100635.00;;;30.80
9985;BMP180;16737;50.932;6.780;2022-07-30T12:36:48;100635.00;;;30.90
9985;BMP180;16737;50.932;6.780;2022-07-30T12:39:20;100640.00;;;30.90
9985;BMP180;16737;50.932;6.780;2022-07-30T12:41:49;100635.00;;;30.90
9985;BMP180;16737;50.932;6.780;2022-07-30T12:44:37;100645.00;;;30.80
9985;BMP180;16737;50.932;6.780;2022-07-30T12:47:17;100631.00;;;30.90
9985;BMP180;16737;50.932;6.780;2022-07-30T12:49:46;100635.00;;;30.90
9985;BMP180;16737;50.932;6.780;2022-07-30T12:52:21;100633.00;;;30.90
9985;BMP180;16737;50.932;6.780;2022-07-30T12:55:04;100628.00;;;30.90
9985;BMP180;16737;50.932;6.780;2022-07-30T12:57:53;100632.00;;;30.90
9985;BMP180;16737;50.932;6.780;2022-07-30T13:00:22;100631.00;;;31.00
9985;BMP180;16737;50.932;6.780;2022-07-30T13:02:50;100632.00;;;31.00
9985;BMP180;16737;50.932;6.780;2022-07-30T13:05:18;100634.00;;;31.10
9985;BMP180;16737;50.932;6.780;2022-07-30T13:07:57;100626.00;;;31.10
9985;BMP180;16737;50.932;6.780;2022-07-30T13:10:25;100626.00;;;31.20
9985;BMP180;16737;50.932;6.780;2022-07-30T13:12:53;100630.00;;;31.30
9985;BMP180;16737;50.932;6.780;2022-07-30T13:15:21;100635.00;;;31.30
9985;BMP180;16737;50.932;6.780;2022-07-30T13:17:48;100631.00;;;31.40
9985;BMP180;16737;50.932;6.780;2022-07-30T13:20:18;100619.00;;;31.40
9985;BMP180;16737;50.932;6.780;2022-07-30T13:22:47;100632.00;;;31.40
9985;BMP180;16737;50.932;6.780;2022-07-30T13:25:14;100633.00;;;31.50
9985;BMP180;16737;50.932;6.780;2022-07-30T13:27:41;100623.00;;;31.50
9985;BMP180;16737;50.932;6.780;2022-07-30T13:30:09;100621.00;;;31.50
9985;BMP180;16737;50.932;6.780;2022-07-30T13:32:37;100626.00;;;31.50
9985;BMP180;16737;50.932;6.780;2022-07-30T13:35:05;100612.00;;;31.50
9985;BMP180;16737;50.932;6.780;2022-07-30T13:37:36;100622.00;;;31.50
9985;BMP180;16737;50.932;6.780;2022-07-30T13:40:03;100619.00;;;31.50
9985;BMP180;16737;50.932;6.780;2022-07-30T13:42:31;100627.00;;;31.50
9985;BMP180;16737;50.932;6.780;2022-07-30T13:44:59;100624.00;;;31.60
9985;BMP180;16737;50.932;6.780;2022-07-30T13:47:26;100624.00;;;31.60
9985;BMP180;16737;50.932;6.780;2022-07-30T13:49:53;100617.00;;;31.60
9985;BMP180;16737;50.932;6.780;2022-07-30T13:52:20;100626.00;;;31.60
9985;BMP180;16737;50.932;6.780;2022-07-30T13:54:49;100619.00;;;31.60
9985;BMP180;16737;50.932;6.780;2022-07-30T13:57:18;100621.00;;;31.60
9985;BMP180;16737;50.932;6.780;2022-07-30T13:59:45;100616.00;;;31.60
9985;BMP180;16737;50.932;6.780;2022-07-30T14:02:13;100613.00;;;31.60
9985;BMP180;16737;50.932;6.780;2022-07-30T14:04:41;100612.00;;;31.60
9985;BMP180;16737;50.932;6.780;2022-07-30T14:07:08;100612.00;;;31.60
9985;BMP180;16737;50.932;6.780;2022-07-30T14:09:35;100614.00;;;31.70
9985;BMP180;16737;50.932;6.780;2022-07-30T14:12:04;100604.00;;;31.70
9985;BMP180;16737;50.932;6.780;2022-07-30T14:14:31;100598.00;;;31.70
9985;BMP180;16737;50.932;6.780;2022-07-30T14:16:58;100608.00;;;31.80
9985;BMP180;16737;50.932;6.780;2022-07-30T14:19:25;100597.00;;;31.80
9985;BMP180;16737;50.932;6.780;2022-07-30T14:21:53;100595.00;;;31.90
9985;BMP180;16737;50.932;6.780;2022-07-30T14:24:21;100580.00;;;31.90
9985;BMP180;16737;50.932;6.780;2022-07-30T14:26:49;100590.00;;;32.00
9985;BMP180;16737;50.932;6.780;2022-07-30T14:29:19;100595.00;;;32.00
9985;BMP180;16737;50.932;6.780;2022-07-30T14:31:46;100590.00;;;32.10